sensor_id;sensor_type;location;lat;lon;timestamp;pressure;altitude;pressure_sealevel;temperature;humidity
46303;BME280;32029;51.358;5.628;2023-05-08T00:02:25;101735.88;;;18.60;96.19
46303;BME280;32029;51.358;5.628;2023-05-08T00:04:52;101764.72;;;18.72;96.01
46303;BME280;32029;51.358;5.628;2023-05-08T00:07:21;101767.31;;;18.74;96.34
46303;BME280;32029;51.358;5.628;2023-05-08T00:09:48;101748.25;;;18.64;96.44
46303;BME280;32029;51.358;5.628;2023-05-08T00:12:16;101761.72;;;18.60;96.32
46303;BME280;32029;51.358;5.628;2023-05-08T00:14:42;101766.44;;;18.67;96.61
46303;BME280;32029;51.358;5.628;2023-05-08T00:17:09;101739.75;;;18.52;96.76
46303;BME280;32029;51.358;5.628;2023-05-08T00:19:36;101762.16;;;18.64;96.95
46303;BME280;32029;51.358;5.628;2023-05-08T00:22:03;101725.22;;;18.44;97.17
46303;BME280;32029;51.358;5.628;2023-05-08T00:24:31;101747.88;;;18.54;96.89
46303;BME280;32029;51.358;5.628;2023-05-08T00:27:00;101756.19;;;18.60;96.91
46303;BME280;32029;51.358;5.628;2023-05-08T00:29:30;101756.00;;;18.55;97.24
46303;BME280;32029;51.358;5.628;2023-05-08T00:31:56;101756.41;;;18.59;97.48
46303;BME280;32029;51.358;5.628;2023-05-08T00:34:23;101757.25;;;18.59;97.79
46303;BME280;32029;51.358;5.628;2023-05-08T00:36:51;101756.41;;;18.59;97.61
46303;BME280;32029;51.358;5.628;2023-05-08T00:39:18;101750.84;;;18.52;97.72
46303;BME280;32029;51.358;5.628;2023-05-08T00:41:46;101747.88;;;18.47;97.67
46303;BME280;32029;51.358;5.628;2023-05-08T00:44:12;101748.31;;;18.51;97.70
46303;BME280;32029;51.358;5.628;2023-05-08T00:46:40;101767.75;;;18.57;97.80
46303;BME280;32029;51.358;5.628;2023-05-08T00:49:08;101767.75;;;18.57;97.91
46303;BME280;32029;51.358;5.628;2023-05-08T00:51:44;101773.50;;;18.56;97.67
46303;BME280;32029;51.358;5.628;2023-05-08T00:54:13;101769.88;;;18.55;97.60
46303;BME280;32029;51.358;5.628;2023-05-08T00:56:40;101770.31;;;18.52;97.80
46303;BME280;32029;51.358;5.628;2023-05-08T00:59:08;101773.09;;;18.52;97.84
46303;BME280;32029;51.358;5.628;2023-05-08T01:01:37;101766.69;;;18.52;98.26
46303;BME280;32029;51.358;5.628;2023-05-08T01:04:05;101734.22;;;18.39;98.01
46303;BME280;32029;51.358;5.628;2023-05-08T01:06:33;101754.28;;;18.54;98.07
46303;BME280;32029;51.358;5.628;2023-05-08T01:09:02;101756.00;;;18.55;98.03
46303;BME280;32029;51.358;5.628;2023-05-08T01:11:42;101757.06;;;18.54;97.77
46303;BME280;32029;51.358;5.628;2023-05-08T01:22:46;101760.28;;;18.51;98.26
46303;BME280;32029;51.358;5.628;2023-05-08T01:28:26;101709.88;;;18.21;98.10
46303;BME280;32029;51.358;5.628;2023-05-08T01:31:19;101758.56;;;18.50;98.10
46303;BME280;32029;51.358;5.628;2023-05-08T01:34:05;101760.50;;;18.50;97.99
46303;BME280;32029;51.358;5.628;2023-05-08T01:36:40;101740.03;;;18.38;98.20
46303;BME280;32029;51.358;5.628;2023-05-08T01:39:19;101741.47;;;18.40;98.17
46303;BME280;32029;51.358;5.628;2023-05-08T01:41:56;101754.09;;;18.49;98.14
46303;BME280;32029;51.358;5.628;2023-05-08T01:44:27;101756.88;;;18.49;97.92
46303;BME280;32029;51.358;5.628;2023-05-08T01:46:58;101744.69;;;18.44;98.07
46303;BME280;32029;51.358;5.628;2023-05-08T01:49:33;101763.28;;;18.50;97.90
46303;BME280;32029;51.358;5.628;2023-05-08T01:52:08;101740.22;;;18.36;97.85
46303;BME280;32029;51.358;5.628;2023-05-08T01:54:42;101762.44;;;18.49;97.69
46303;BME280;32029;51.358;5.628;2023-05-08T01:57:12;101761.56;;;18.49;97.86
46303;BME280;32029;51.358;5.628;2023-05-08T01:59:41;101766.25;;;18.48;97.83
46303;BME280;32029;51.358;5.628;2023-05-08T02:02:10;101762.63;;;18.48;97.77
46303;BME280;32029;51.358;5.628;2023-05-08T02:04:40;101762.00;;;18.39;97.83
46303;BME280;32029;51.358;5.628;2023-05-08T02:07:09;101768.41;;;18.46;97.64
46303;BME280;32029;51.358;5.628;2023-05-08T02:09:40;101735.31;;;18.25;97.94
46303;BME280;32029;51.358;5.628;2023-05-08T02:12:11;101756.47;;;18.39;97.62
46303;BME280;32029;51.358;5.628;2023-05-08T02:14:39;101765.84;;;18.45;97.72
46303;BME280;32029;51.358;5.628;2023-05-08T02:17:08;101777.19;;;18.43;97.48
46303;BME280;32029;51.358;5.628;2023-05-08T02:19:38;101779.09;;;18.43;97.29
46303;BME280;32029;51.358;5.628;2023-05-08T02:22:07;101776.56;;;18.41;97.53
46303;BME280;32029;51.358;5.628;2023-05-08T02:24:35;101772.47;;;18.37;97.49
46303;BME280;32029;51.358;5.628;2023-05-08T02:27:05;101763.31;;;18.30;97.65
46303;BME280;32029;51.358;5.628;2023-05-08T02:29:35;101769.50;;;18.32;97.51
46303;BME280;32029;51.358;5.628;2023-05-08T02:32:03;101781.47;;;18.39;97.44
46303;BME280;32029;51.358;5.628;2023-05-08T02:34:30;101775.25;;;18.37;97.50
46303;BME280;32029;51.358;5.628;2023-05-08T02:36:58;101781.88;;;18.36;97.32
46303;BME280;32029;51.358;5.628;2023-05-08T02:39:29;101783.81;;;18.35;97.48
46303;BME280;32029;51.358;5.628;2023-05-08T02:41:57;101754.56;;;18.20;97.23
46303;BME280;32029;51.358;5.628;2023-05-08T02:44:24;101789.59;;;18.34;97.46
46303;BME280;32029;51.358;5.628;2023-05-08T02:47:03;101780.41;;;18.33;97.53
46303;BME280;32029;51.358;5.628;2023-05-08T02:49:41;101779.75;;;18.31;97.53
46303;BME280;32029;51.358;5.628;2023-05-08T02:52:17;101777.84;;;18.32;97.59
46303;BME280;32029;51.358;5.628;2023-05-08T02:58:07;101774.44;;;18.30;97.73
46303;BME280;32029;51.358;5.628;2023-05-08T03:00:46;101772.69;;;18.29;98.07
46303;BME280;32029;51.358;5.628;2023-05-08T03:03:36;101769.91;;;18.29;97.88
46303;BME280;32029;51.358;5.628;2023-05-08T03:06:12;101764.16;;;18.24;97.57
46303;BME280;32029;51.358;5.628;2023-05-08T03:08:41;101766.53;;;18.27;97.49
46303;BME280;32029;51.358;5.628;2023-05-08T03:11:12;101749.84;;;18.13;97.58
46303;BME280;32029;51.358;5.628;2023-05-08T03:13:41;101772.28;;;18.25;97.55
46303;BME280;32029;51.358;5.628;2023-05-08T03:16:16;101758.63;;;18.17;97.62
46303;BME280;32029;51.358;5.628;2023-05-08T03:18:54;101753.28;;;18.16;97.86
46303;BME280;32029;51.358;5.628;2023-05-08T03:21:25;101759.03;;;18.21;97.53
46303;BME280;32029;51.358;5.628;2023-05-08T03:23:57;101753.09;;;18.10;97.66
46303;BME280;32029;51.358;5.628;2023-05-08T03:26:27;101744.53;;;18.12;97.75
46303;BME280;32029;51.358;5.628;2023-05-08T03:28:56;101746.69;;;18.10;97.96
46303;BME280;32029;51.358;5.628;2023-05-08T03:31:24;101766.31;;;18.22;97.93
46303;BME280;32029;51.358;5.628;2023-05-08T03:33:53;101766.31;;;18.22;97.93
46303;BME280;32029;51.358;5.628;2023-05-08T03:36:21;101755.00;;;18.17;97.99
46303;BME280;32029;51.358;5.628;2023-05-08T03:38:50;101753.50;;;18.14;98.13
46303;BME280;32029;51.358;5.628;2023-05-08T03:41:17;101761.81;;;18.21;97.96
46303;BME280;32029;51.358;5.628;2023-05-08T03:43:45;101733.41;;;18.05;98.19
46303;BME280;32029;51.358;5.628;2023-05-08T03:46:13;101747.31;;;18.12;97.75
46303;BME280;32029;51.358;5.628;2023-05-08T03:48:42;101738.13;;;18.11;97.84
46303;BME280;32029;51.358;5.628;2023-05-08T03:51:10;101746.66;;;18.17;97.92
46303;BME280;32029;51.358;5.628;2023-05-08T03:53:37;101748.34;;;18.18;98.00
46303;BME280;32029;51.358;5.628;2023-05-08T03:56:05;101751.34;;;18.16;97.78
46303;BME280;32029;51.358;5.628;2023-05-08T03:58:59;101743.47;;;18.06;97.53
46303;BME280;32029;51.358;5.628;2023-05-08T04:01:43;101744.94;;;18.09;97.58
46303;BME280;32029;51.358;5.628;2023-05-08T04:04:44;101759.91;;;18.15;97.62
46303;BME280;32029;51.358;5.628;2023-05-08T04:10:02;101760.34;;;18.11;97.56
46303;BME280;32029;51.358;5.628;2023-05-08T04:12:56;101739.19;;;17.97;97.62
46303;BME280;32029;51.358;5.628;2023-05-08T04:15:28;101734.28;;;17.93;97.65
46303;BME280;32029;51.358;5.628;2023-05-08T04:18:08;101740.69;;;18.00;97.67
46303;BME280;32029;51.358;5.628;2023-05-08T04:20:38;101745.16;;;17.94;97.62
46303;BME280;32029;51.358;5.628;2023-05-08T04:23:06;101754.16;;;18.03;97.88
46303;BME280;32029;51.358;5.628;2023-05-08T04:25:36;101766.97;;;18.10;97.96
46303;BME280;32029;51.358;5.628;2023-05-08T04:28:05;101771.44;;;18.11;98.11
46303;BME280;32029;51.358;5.628;2023-05-08T04:30:33;101759.06;;;18.07;98.07
46303;BME280;32029;51.358;5.628;2023-05-08T04:33:02;101767.59;;;18.12;98.38
46303;BME280;32029;51.358;5.628;2023-05-08T04:35:31;101770.19;;;18.14;98.41
46303;BME280;32029;51.358;5.628;2023-05-08T04:37:58;101772.72;;;18.16;98.50
46303;BME280;32029;51.358;5.628;2023-05-08T04:40:26;101775.28;;;18.17;98.76
46303;BME280;32029;51.358;5.628;2023-05-08T04:42:52;101775.09;;;18.19;98.67
46303;BME280;32029;51.358;5.628;2023-05-08T04:45:19;101759.06;;;18.07;98.48
46303;BME280;32029;51.358;5.628;2023-05-08T04:47:47;101771.44;;;18.11;98.77
46303;BME280;32029;51.358;5.628;2023-05-08T04:50:14;101768.66;;;18.11;98.88
46303;BME280;32029;51.358;5.628;2023-05-08T04:52:41;101736.41;;;17.97;98.74
46303;BME280;32029;51.358;5.628;2023-05-08T04:55:08;101773.34;;;18.18;98.58
46303;BME280;32029;51.358;5.628;2023-05-08T04:57:36;101790.25;;;18.29;98.84
46303;BME280;32029;51.358;5.628;2023-05-08T05:00:03;101771.47;;;18.18;99.12
46303;BME280;32029;51.358;5.628;2023-05-08T05:02:32;101795.13;;;18.41;98.93
46303;BME280;32029;51.358;5.628;2023-05-08T05:04:59;101777.22;;;18.30;98.99
46303;BME280;32029;51.358;5.628;2023-05-08T05:07:26;101778.50;;;18.34;98.80
46303;BME280;32029;51.358;5.628;2023-05-08T05:09:53;101773.56;;;18.36;99.08
46303;BME280;32029;51.358;5.628;2023-05-08T05:12:21;101810.28;;;18.58;99.08
46303;BME280;32029;51.358;5.628;2023-05-08T05:14:47;101780.59;;;18.45;98.41
46303;BME280;32029;51.358;5.628;2023-05-08T05:17:14;101801.75;;;18.53;98.24
46303;BME280;32029;51.358;5.628;2023-05-08T05:19:42;101775.69;;;18.47;98.74
46303;BME280;32029;51.358;5.628;2023-05-08T05:22:09;101813.25;;;18.70;98.80
46303;BME280;32029;51.358;5.628;2023-05-08T05:24:35;101769.47;;;18.52;98.83
46303;BME280;32029;51.358;5.628;2023-05-08T05:27:03;101822.66;;;18.82;98.69
46303;BME280;32029;51.358;5.628;2023-05-08T05:29:30;101815.41;;;18.81;98.23
46303;BME280;32029;51.358;5.628;2023-05-08T05:31:57;101807.72;;;18.76;97.41
46303;BME280;32029;51.358;5.628;2023-05-08T05:34:25;101821.81;;;18.88;97.68
46303;BME280;32029;51.358;5.628;2023-05-08T05:36:53;101759.00;;;18.54;97.76
46303;BME280;32029;51.358;5.628;2023-05-08T05:39:19;101827.75;;;18.98;97.73
46303;BME280;32029;51.358;5.628;2023-05-08T05:41:46;101819.66;;;18.90;97.68
46303;BME280;32029;51.358;5.628;2023-05-08T05:44:13;101834.34;;;19.10;97.25
46303;BME280;32029;51.358;5.628;2023-05-08T05:46:39;101823.00;;;19.12;96.83
46303;BME280;32029;51.358;5.628;2023-05-08T05:49:08;101820.00;;;19.07;96.60
46303;BME280;32029;51.358;5.628;2023-05-08T05:51:36;101829.59;;;19.18;96.44
46303;BME280;32029;51.358;5.628;2023-05-08T05:54:03;101834.09;;;19.19;96.00
46303;BME280;32029;51.358;5.628;2023-05-08T05:56:31;101832.38;;;19.24;95.80
46303;BME280;32029;51.358;5.628;2023-05-08T05:58:59;101806.72;;;19.16;95.47
46303;BME280;32029;51.358;5.628;2023-05-08T06:01:26;101830.19;;;19.33;95.34
46303;BME280;32029;51.358;5.628;2023-05-08T06:03:55;101844.66;;;19.48;95.40
46303;BME280;32029;51.358;5.628;2023-05-08T06:06:22;101832.69;;;19.48;95.08
46303;BME280;32029;51.358;5.628;2023-05-08T06:08:49;101838.41;;;19.59;94.77
46303;BME280;32029;51.358;5.628;2023-05-08T06:11:15;101831.75;;;19.67;94.80
46303;BME280;32029;51.358;5.628;2023-05-08T06:13:44;101822.06;;;19.70;93.56
46303;BME280;32029;51.358;5.628;2023-05-08T06:16:12;101846.81;;;19.91;93.95
46303;BME280;32029;51.358;5.628;2023-05-08T06:18:40;101829.44;;;19.89;93.87
46303;BME280;32029;51.358;5.628;2023-05-08T06:21:07;101847.75;;;20.10;93.14
46303;BME280;32029;51.358;5.628;2023-05-08T06:23:34;101832.31;;;20.07;92.86
46303;BME280;32029;51.358;5.628;2023-05-08T06:26:02;101847.00;;;20.21;91.70
46303;BME280;32029;51.358;5.628;2023-05-08T06:28:30;101855.50;;;20.33;91.79
46303;BME280;32029;51.358;5.628;2023-05-08T06:30:57;101845.50;;;20.44;91.67
46303;BME280;32029;51.358;5.628;2023-05-08T06:33:25;101849.53;;;20.54;91.54
46303;BME280;32029;51.358;5.628;2023-05-08T06:35:52;101831.94;;;20.54;91.09
46303;BME280;32029;51.358;5.628;2023-05-08T06:38:20;101836.94;;;20.70;90.52
46303;BME280;32029;51.358;5.628;2023-05-08T06:40:48;101810.19;;;20.63;90.47
46303;BME280;32029;51.358;5.628;2023-05-08T06:43:17;101833.78;;;20.85;90.07
46303;BME280;32029;51.358;5.628;2023-05-08T06:45:44;101860.13;;;21.08;89.41
46303;BME280;32029;51.358;5.628;2023-05-08T06:48:13;101830.81;;;20.98;89.33
46303;BME280;32029;51.358;5.628;2023-05-08T06:50:39;101852.53;;;21.15;89.41
46303;BME280;32029;51.358;5.628;2023-05-08T06:53:07;101843.47;;;21.19;89.09
46303;BME280;32029;51.358;5.628;2023-05-08T06:55:35;101860.59;;;21.41;88.63
46303;BME280;32029;51.358;5.628;2023-05-08T06:58:01;101862.47;;;21.47;88.21
46303;BME280;32029;51.358;5.628;2023-05-08T07:00:30;101850.06;;;21.43;86.92
46303;BME280;32029;51.358;5.628;2023-05-08T07:02:57;101839.16;;;21.42;86.43
46303;BME280;32029;51.358;5.628;2023-05-08T07:05:25;101870.66;;;21.61;86.21
46303;BME280;32029;51.358;5.628;2023-05-08T07:07:53;101756.75;;;21.02;86.20
46303;BME280;32029;51.358;5.628;2023-05-08T07:10:22;101862.31;;;21.72;85.83
46303;BME280;32029;51.358;5.628;2023-05-08T07:12:50;101863.34;;;21.78;85.04
46303;BME280;32029;51.358;5.628;2023-05-08T07:15:18;101840.09;;;21.66;84.08
46303;BME280;32029;51.358;5.628;2023-05-08T07:17:45;101867.34;;;21.82;84.36
46303;BME280;32029;51.358;5.628;2023-05-08T07:20:12;101871.38;;;21.86;84.59
46303;BME280;32029;51.358;5.628;2023-05-08T07:22:38;101872.13;;;21.93;83.93
46303;BME280;32029;51.358;5.628;2023-05-08T07:25:07;101873.38;;;21.97;83.64
46303;BME280;32029;51.358;5.628;2023-05-08T07:27:33;101863.94;;;21.80;82.37
46303;BME280;32029;51.358;5.628;2023-05-08T07:30:02;101848.22;;;21.67;81.91
46303;BME280;32029;51.358;5.628;2023-05-08T07:32:30;101868.53;;;21.74;83.04
46303;BME280;32029;51.358;5.628;2023-05-08T07:34:57;101849.28;;;21.55;83.09
46303;BME280;32029;51.358;5.628;2023-05-08T07:37:24;101877.16;;;21.73;82.57
46303;BME280;32029;51.358;5.628;2023-05-08T07:39:51;101881.34;;;21.64;82.90
46303;BME280;32029;51.358;5.628;2023-05-08T07:42:19;101857.34;;;21.44;82.54
46303;BME280;32029;51.358;5.628;2023-05-08T07:44:47;101873.78;;;21.52;83.19
46303;BME280;32029;51.358;5.628;2023-05-08T07:47:14;101869.28;;;21.51;84.01
46303;BME280;32029;51.358;5.628;2023-05-08T07:49:42;101884.78;;;21.66;84.11
46303;BME280;32029;51.358;5.628;2023-05-08T07:52:09;101887.47;;;21.72;82.81
46303;BME280;32029;51.358;5.628;2023-05-08T07:54:37;101856.09;;;21.59;84.09
46303;BME280;32029;51.358;5.628;2023-05-08T07:57:03;101856.38;;;21.69;83.41
46303;BME280;32029;51.358;5.628;2023-05-08T07:59:31;101877.09;;;21.91;83.05
46303;BME280;32029;51.358;5.628;2023-05-08T08:01:59;101867.66;;;21.92;83.39
46303;BME280;32029;51.358;5.628;2023-05-08T08:04:26;101847.22;;;21.92;83.36
46303;BME280;32029;51.358;5.628;2023-05-08T08:06:53;101857.00;;;22.13;82.06
46303;BME280;32029;51.358;5.628;2023-05-08T08:09:20;101867.03;;;22.32;82.03
46303;BME280;32029;51.358;5.628;2023-05-08T08:11:48;101876.19;;;22.51;80.40
46303;BME280;32029;51.358;5.628;2023-05-08T08:14:16;101846.63;;;22.43;80.58
46303;BME280;32029;51.358;5.628;2023-05-08T08:16:44;101867.19;;;22.72;80.56
46303;BME280;32029;51.358;5.628;2023-05-08T08:19:11;101858.78;;;22.84;80.27
46303;BME280;32029;51.358;5.628;2023-05-08T08:21:43;101859.16;;;22.99;79.69
46303;BME280;32029;51.358;5.628;2023-05-08T08:24:12;101866.59;;;23.17;78.88
46303;BME280;32029;51.358;5.628;2023-05-08T08:26:40;101871.78;;;23.26;76.91
46303;BME280;32029;51.358;5.628;2023-05-08T08:29:08;101847.22;;;23.16;76.62
46303;BME280;32029;51.358;5.628;2023-05-08T08:31:36;101845.63;;;23.20;76.50
46303;BME280;32029;51.358;5.628;2023-05-08T08:34:03;101858.25;;;23.34;76.46
46303;BME280;32029;51.358;5.628;2023-05-08T08:36:31;101863.44;;;23.54;75.08
46303;BME280;32029;51.358;5.628;2023-05-08T08:38:59;101859.88;;;23.59;75.63
46303;BME280;32029;51.358;5.628;2023-05-08T08:41:27;101847.47;;;23.55;74.28
46303;BME280;32029;51.358;5.628;2023-05-08T08:43:54;101834.72;;;23.47;74.56
46303;BME280;32029;51.358;5.628;2023-05-08T08:46:24;101853.78;;;23.62;74.14
46303;BME280;32029;51.358;5.628;2023-05-08T08:48:55;101860.50;;;23.61;73.21
46303;BME280;32029;51.358;5.628;2023-05-08T08:51:42;101837.72;;;23.57;73.49
46303;BME280;32029;51.358;5.628;2023-05-08T08:54:13;101855.81;;;23.78;74.01
46303;BME280;32029;51.358;5.628;2023-05-08T08:56:44;101839.59;;;23.80;72.50
46303;BME280;32029;51.358;5.628;2023-05-08T09:01:03;101865.31;;;23.77;72.01
46303;BME280;32029;51.358;5.628;2023-05-08T09:03:32;101855.56;;;23.80;71.82
46303;BME280;32029;51.358;5.628;2023-05-08T09:06:00;101830.72;;;23.71;71.80
46303;BME280;32029;51.358;5.628;2023-05-08T09:08:28;101821.41;;;23.83;71.80
46303;BME280;32029;51.358;5.628;2023-05-08T09:10:55;101842.84;;;24.06;70.99
46303;BME280;32029;51.358;5.628;2023-05-08T09:13:21;101859.25;;;24.14;71.67
46303;BME280;32029;51.358;5.628;2023-05-08T09:15:49;101851.53;;;24.21;70.71
46303;BME280;32029;51.358;5.628;2023-05-08T09:18:17;101872.47;;;24.30;71.31
46303;BME280;32029;51.358;5.628;2023-05-08T09:20:46;101872.28;;;24.37;71.82
46303;BME280;32029;51.358;5.628;2023-05-08T09:23:14;101865.19;;;24.46;71.84
46303;BME280;32029;51.358;5.628;2023-05-08T09:25:43;101846.84;;;24.38;70.34
46303;BME280;32029;51.358;5.628;2023-05-08T09:28:16;101856.50;;;24.48;69.53
46303;BME280;32029;51.358;5.628;2023-05-08T09:33:16;101868.88;;;24.18;69.55
46303;BME280;32029;51.358;5.628;2023-05-08T09:35:44;101876.34;;;24.12;69.67
46303;BME280;32029;51.358;5.628;2023-05-08T09:38:34;101875.91;;;24.04;70.16
46303;BME280;32029;51.358;5.628;2023-05-08T09:41:10;101873.59;;;24.01;69.53
46303;BME280;32029;51.358;5.628;2023-05-08T09:43:39;101871.44;;;23.91;70.37
46303;BME280;32029;51.358;5.628;2023-05-08T09:46:18;101872.75;;;24.00;70.93
46303;BME280;32029;51.358;5.628;2023-05-08T09:48:50;101864.25;;;23.95;71.05
46303;BME280;32029;51.358;5.628;2023-05-08T09:51:19;101880.50;;;24.10;71.46
46303;BME280;32029;51.358;5.628;2023-05-08T09:53:50;101848.47;;;24.06;72.13
46303;BME280;32029;51.358;5.628;2023-05-08T09:56:37;101864.13;;;24.35;70.49
46303;BME280;32029;51.358;5.628;2023-05-08T09:59:21;101862.06;;;24.42;69.84
46303;BME280;32029;51.358;5.628;2023-05-08T10:01:49;101864.94;;;24.48;70.10
46303;BME280;32029;51.358;5.628;2023-05-08T10:04:18;101883.47;;;24.65;69.43
46303;BME280;32029;51.358;5.628;2023-05-08T10:06:57;101870.00;;;24.67;68.24
46303;BME280;32029;51.358;5.628;2023-05-08T10:09:24;101866.53;;;24.60;67.91
46303;BME280;32029;51.358;5.628;2023-05-08T10:11:52;101858.22;;;24.49;68.16
46303;BME280;32029;51.358;5.628;2023-05-08T10:14:22;101881.34;;;24.56;68.90
46303;BME280;32029;51.358;5.628;2023-05-08T10:16:52;101867.81;;;24.53;69.53
46303;BME280;32029;51.358;5.628;2023-05-08T10:19:23;101853.28;;;24.56;69.82
46303;BME280;32029;51.358;5.628;2023-05-08T10:21:53;101878.06;;;24.81;68.90
46303;BME280;32029;51.358;5.628;2023-05-08T10:24:33;101830.84;;;24.56;68.91
46303;BME280;32029;51.358;5.628;2023-05-08T10:27:14;101877.44;;;24.96;68.57
46303;BME280;32029;51.358;5.628;2023-05-08T10:29:52;101845.59;;;24.85;67.55
46303;BME280;32029;51.358;5.628;2023-05-08T10:32:21;101882.28;;;25.00;68.21
46303;BME280;32029;51.358;5.628;2023-05-08T10:34:51;101869.03;;;24.96;67.24
46303;BME280;32029;51.358;5.628;2023-05-08T10:37:19;101862.50;;;24.90;68.18
46303;BME280;32029;51.358;5.628;2023-05-08T10:39:47;101868.13;;;24.90;68.00
46303;BME280;32029;51.358;5.628;2023-05-08T10:42:15;101873.28;;;24.98;68.21
46303;BME280;32029;51.358;5.628;2023-05-08T10:44:43;101852.84;;;25.03;69.11
46303;BME280;32029;51.358;5.628;2023-05-08T10:47:21;101867.84;;;25.30;67.40
46303;BME280;32029;51.358;5.628;2023-05-08T10:50:00;101854.66;;;25.31;66.21
46303;BME280;32029;51.358;5.628;2023-05-08T10:52:40;101842.13;;;25.38;66.69
46303;BME280;32029;51.358;5.628;2023-05-08T10:55:29;101869.53;;;25.75;65.92
46303;BME280;32029;51.358;5.628;2023-05-08T11:01:09;101840.16;;;25.83;64.60
46303;BME280;32029;51.358;5.628;2023-05-08T11:03:22;101850.84;;;25.86;64.29
46303;BME280;32029;51.358;5.628;2023-05-08T11:05:51;101833.31;;;25.52;63.50
46303;BME280;32029;51.358;5.628;2023-05-08T11:08:25;101866.78;;;25.58;63.99
46303;BME280;32029;51.358;5.628;2023-05-08T11:13:29;101853.31;;;25.33;63.37
46303;BME280;32029;51.358;5.628;2023-05-08T11:15:59;101843.66;;;25.24;64.57
46303;BME280;32029;51.358;5.628;2023-05-08T11:18:27;101839.78;;;25.30;65.87
46303;BME280;32029;51.358;5.628;2023-05-08T11:21:01;101850.41;;;25.50;64.50
46303;BME280;32029;51.358;5.628;2023-05-08T11:23:35;101828.00;;;25.55;65.12
46303;BME280;32029;51.358;5.628;2023-05-08T11:26:04;101834.97;;;25.75;64.75
46303;BME280;32029;51.358;5.628;2023-05-08T11:28:36;101845.66;;;26.00;65.38
46303;BME280;32029;51.358;5.628;2023-05-08T11:31:04;101832.25;;;26.12;61.84
46303;BME280;32029;51.358;5.628;2023-05-08T11:33:33;101837.00;;;26.06;62.67
46303;BME280;32029;51.358;5.628;2023-05-08T11:38:42;101836.41;;;26.04;63.33
46303;BME280;32029;51.358;5.628;2023-05-08T11:41:21;101806.50;;;25.93;63.26
46303;BME280;32029;51.358;5.628;2023-05-08T11:46:41;101812.53;;;26.07;62.18
46303;BME280;32029;51.358;5.628;2023-05-08T11:49:14;101805.97;;;25.96;62.61
46303;BME280;32029;51.358;5.628;2023-05-08T11:51:47;101820.47;;;26.15;63.23
46303;BME280;32029;51.358;5.628;2023-05-08T11:54:16;101815.53;;;26.27;63.50
46303;BME280;32029;51.358;5.628;2023-05-08T11:56:47;101813.16;;;26.14;62.59
46303;BME280;32029;51.358;5.628;2023-05-08T11:59:16;101814.44;;;26.01;63.06
46303;BME280;32029;51.358;5.628;2023-05-08T12:01:47;101777.84;;;25.69;63.01
46303;BME280;32029;51.358;5.628;2023-05-08T12:04:15;101812.56;;;25.80;63.30
46303;BME280;32029;51.358;5.628;2023-05-08T12:06:42;101816.31;;;25.90;61.59
46303;BME280;32029;51.358;5.628;2023-05-08T12:09:15;101805.56;;;25.82;61.99
46303;BME280;32029;51.358;5.628;2023-05-08T12:11:43;101819.97;;;25.91;61.61
46303;BME280;32029;51.358;5.628;2023-05-08T12:14:12;101814.28;;;25.86;61.04
46303;BME280;32029;51.358;5.628;2023-05-08T12:16:43;101807.50;;;25.82;60.70
46303;BME280;32029;51.358;5.628;2023-05-08T12:19:12;101794.72;;;25.69;61.33
46303;BME280;32029;51.358;5.628;2023-05-08T12:21:46;101803.19;;;25.74;61.19
46303;BME280;32029;51.358;5.628;2023-05-08T12:24:15;101799.13;;;25.60;62.34
46303;BME280;32029;51.358;5.628;2023-05-08T12:26:45;101802.59;;;25.72;62.54
46303;BME280;32029;51.358;5.628;2023-05-08T12:29:11;101801.31;;;25.80;61.36
46303;BME280;32029;51.358;5.628;2023-05-08T12:31:40;101789.72;;;25.76;61.71
46303;BME280;32029;51.358;5.628;2023-05-08T12:34:07;101800.06;;;25.98;60.46
46303;BME280;32029;51.358;5.628;2023-05-08T12:36:35;101780.13;;;25.99;61.23
46303;BME280;32029;51.358;5.628;2023-05-08T12:39:14;101776.09;;;26.22;60.42
46303;BME280;32029;51.358;5.628;2023-05-08T12:41:46;101788.56;;;26.36;60.09
46303;BME280;32029;51.358;5.628;2023-05-08T12:44:32;101763.84;;;26.38;60.41
46303;BME280;32029;51.358;5.628;2023-05-08T12:47:00;101782.00;;;26.58;59.71
46303;BME280;32029;51.358;5.628;2023-05-08T12:49:28;101785.97;;;26.62;59.65
46303;BME280;32029;51.358;5.628;2023-05-08T12:52:04;101779.31;;;26.78;58.23
46303;BME280;32029;51.358;5.628;2023-05-08T12:54:37;101770.88;;;26.78;58.39
46303;BME280;32029;51.358;5.628;2023-05-08T12:57:23;101772.00;;;26.82;57.52
46303;BME280;32029;51.358;5.628;2023-05-08T13:00:02;101774.34;;;26.96;58.17
46303;BME280;32029;51.358;5.628;2023-05-08T13:02:31;101758.03;;;27.03;57.39
46303;BME280;32029;51.358;5.628;2023-05-08T13:04:59;101757.56;;;27.16;57.77
46303;BME280;32029;51.358;5.628;2023-05-08T13:07:33;101772.84;;;27.35;57.69
46303;BME280;32029;51.358;5.628;2023-05-08T13:10:01;101752.81;;;27.42;56.60
46303;BME280;32029;51.358;5.628;2023-05-08T13:12:32;101730.56;;;27.41;54.42
46303;BME280;32029;51.358;5.628;2023-05-08T13:15:00;101755.94;;;27.46;53.60
46303;BME280;32029;51.358;5.628;2023-05-08T13:17:31;101757.63;;;27.36;54.20
46303;BME280;32029;51.358;5.628;2023-05-08T13:19:59;101747.44;;;27.25;55.61
46303;BME280;32029;51.358;5.628;2023-05-08T13:22:25;101761.03;;;27.44;55.35
46303;BME280;32029;51.358;5.628;2023-05-08T13:24:52;101753.97;;;27.41;55.34
46303;BME280;32029;51.358;5.628;2023-05-08T13:27:19;101755.94;;;27.41;54.73
46303;BME280;32029;51.358;5.628;2023-05-08T13:29:45;101751.72;;;27.43;55.36
46303;BME280;32029;51.358;5.628;2023-05-08T13:32:12;101720.97;;;27.42;55.25
46303;BME280;32029;51.358;5.628;2023-05-08T13:34:40;101730.59;;;27.51;54.64
46303;BME280;32029;51.358;5.628;2023-05-08T13:37:08;101744.13;;;27.69;54.25
46303;BME280;32029;51.358;5.628;2023-05-08T13:39:36;101735.13;;;27.67;54.01